sensor_id;sensor_type;location;lat;lon;timestamp;P1;durP1;ratioP1;P2;durP2;ratioP2
58338;SDS011;68636;52.704;6.536;2023-04-03T00:01:13;5.70;;;0.50;;
58338;SDS011;68636;52.704;6.536;2023-04-03T00:03:40;3.50;;;0.63;;
58338;SDS011;68636;52.704;6.536;2023-04-03T00:06:09;2.70;;;0.40;;
58338;SDS011;68636;52.704;6.536;2023-04-03T00:08:37;6.22;;;1.00;;
58338;SDS011;68636;52.704;6.536;2023-04-03T00:11:03;4.88;;;0.80;;
58338;SDS011;68636;52.704;6.536;2023-04-03T00:13:30;3.50;;;0.80;;
58338;SDS011;68636;52.704;6.536;2023-04-03T00:15:56;5.65;;;0.90;;
58338;SDS011;68636;52.704;6.536;2023-04-03T00:18:22;7.00;;;1.15;;
58338;SDS011;68636;52.704;6.536;2023-04-03T00:20:48;6.30;;;0.90;;
58338;SDS011;68636;52.704;6.536;2023-04-03T00:23:15;6.43;;;0.82;;
58338;SDS011;68636;52.704;6.536;2023-04-03T00:25:41;5.72;;;1.10;;
58338;SDS011;68636;52.704;6.536;2023-04-03T00:28:07;8.70;;;1.27;;
58338;SDS011;68636;52.704;6.536;2023-04-03T00:30:33;6.80;;;1.10;;
58338;SDS011;68636;52.704;6.536;2023-04-03T00:33:00;8.48;;;1.33;;
58338;SDS011;68636;52.704;6.536;2023-04-03T00:35:26;3.40;;;0.75;;
58338;SDS011;68636;52.704;6.536;2023-04-03T00:37:52;6.10;;;0.93;;
58338;SDS011;68636;52.704;6.536;2023-04-03T00:42:46;4.88;;;1.00;;
58338;SDS011;68636;52.704;6.536;2023-04-03T00:47:38;6.28;;;1.23;;
58338;SDS011;68636;52.704;6.536;2023-04-03T00:50:06;4.90;;;0.80;;
58338;SDS011;68636;52.704;6.536;2023-04-03T00:52:32;5.00;;;0.90;;
58338;SDS011;68636;52.704;6.536;2023-04-03T00:54:59;5.30;;;0.80;;
58338;SDS011;68636;52.704;6.536;2023-04-03T00:57:29;6.63;;;0.90;;
58338;SDS011;68636;52.704;6.536;2023-04-03T01:00:00;7.40;;;1.17;;
58338;SDS011;68636;52.704;6.536;2023-04-03T01:02:34;4.03;;;0.70;;
58338;SDS011;68636;52.704;6.536;2023-04-03T01:05:00;4.65;;;0.80;;
58338;SDS011;68636;52.704;6.536;2023-04-03T01:07:27;5.95;;;0.70;;
58338;SDS011;68636;52.704;6.536;2023-04-03T01:09:59;6.88;;;0.95;;
58338;SDS011;68636;52.704;6.536;2023-04-03T01:12:28;8.40;;;0.88;;
58338;SDS011;68636;52.704;6.536;2023-04-03T01:14:58;5.80;;;0.77;;
58338;SDS011;68636;52.704;6.536;2023-04-03T01:17:42;4.43;;;0.75;;
58338;SDS011;68636;52.704;6.536;2023-04-03T01:26:13;9.05;;;1.17;;
58338;SDS011;68636;52.704;6.536;2023-04-03T01:28:39;5.90;;;1.02;;
58338;SDS011;68636;52.704;6.536;2023-04-03T01:33:52;4.07;;;0.65;;
58338;SDS011;68636;52.704;6.536;2023-04-03T01:36:24;8.65;;;1.55;;
58338;SDS011;68636;52.704;6.536;2023-04-03T01:38:53;6.68;;;1.13;;
58338;SDS011;68636;52.704;6.536;2023-04-03T01:41:20;7.22;;;0.90;;
58338;SDS011;68636;52.704;6.536;2023-04-03T01:43:47;5.10;;;1.02;;
58338;SDS011;68636;52.704;6.536;2023-04-03T01:46:14;5.53;;;1.02;;
58338;SDS011;68636;52.704;6.536;2023-04-03T01:48:40;6.55;;;1.02;;
58338;SDS011;68636;52.704;6.536;2023-04-03T01:51:06;8.93;;;1.23;;
58338;SDS011;68636;52.704;6.536;2023-04-03T01:53:32;9.98;;;1.00;;
58338;SDS011;68636;52.704;6.536;2023-04-03T01:55:57;5.20;;;0.82;;
58338;SDS011;68636;52.704;6.536;2023-04-03T01:58:23;7.05;;;1.48;;
58338;SDS011;68636;52.704;6.536;2023-04-03T02:00:49;4.55;;;1.05;;
58338;SDS011;68636;52.704;6.536;2023-04-03T02:03:16;7.32;;;0.98;;
58338;SDS011;68636;52.704;6.536;2023-04-03T02:05:42;5.65;;;1.00;;
58338;SDS011;68636;52.704;6.536;2023-04-03T02:08:08;8.10;;;1.40;;
58338;SDS011;68636;52.704;6.536;2023-04-03T02:10:33;6.38;;;1.10;;
58338;SDS011;68636;52.704;6.536;2023-04-03T02:12:59;6.22;;;1.30;;
58338;SDS011;68636;52.704;6.536;2023-04-03T02:15:25;11.50;;;1.58;;
58338;SDS011;68636;52.704;6.536;2023-04-03T02:17:51;10.25;;;1.38;;
58338;SDS011;68636;52.704;6.536;2023-04-03T02:20:17;7.38;;;1.10;;
58338;SDS011;68636;52.704;6.536;2023-04-03T02:22:43;4.45;;;0.75;;
58338;SDS011;68636;52.704;6.536;2023-04-03T02:25:09;6.88;;;1.10;;
58338;SDS011;68636;52.704;6.536;2023-04-03T02:27:35;6.30;;;1.00;;
58338;SDS011;68636;52.704;6.536;2023-04-03T02:30:01;9.45;;;1.20;;
58338;SDS011;68636;52.704;6.536;2023-04-03T02:32:28;11.90;;;1.58;;
58338;SDS011;68636;52.704;6.536;2023-04-03T02:34:54;8.85;;;1.60;;
58338;SDS011;68636;52.704;6.536;2023-04-03T02:37:21;6.77;;;1.20;;
58338;SDS011;68636;52.704;6.536;2023-04-03T02:39:46;9.45;;;1.95;;
58338;SDS011;68636;52.704;6.536;2023-04-03T02:42:12;7.10;;;1.20;;
58338;SDS011;68636;52.704;6.536;2023-04-03T02:44:38;8.52;;;2.03;;
58338;SDS011;68636;52.704;6.536;2023-04-03T02:47:04;8.60;;;1.63;;
58338;SDS011;68636;52.704;6.536;2023-04-03T02:49:30;9.05;;;1.65;;
58338;SDS011;68636;52.704;6.536;2023-04-03T02:51:56;9.80;;;2.00;;
58338;SDS011;68636;52.704;6.536;2023-04-03T02:54:22;7.38;;;1.95;;
58338;SDS011;68636;52.704;6.536;2023-04-03T02:56:49;8.48;;;1.40;;
58338;SDS011;68636;52.704;6.536;2023-04-03T02:59:16;5.90;;;1.42;;
58338;SDS011;68636;52.704;6.536;2023-04-03T03:01:42;6.60;;;1.55;;
58338;SDS011;68636;52.704;6.536;2023-04-03T03:04:07;4.85;;;1.23;;
58338;SDS011;68636;52.704;6.536;2023-04-03T03:06:33;7.60;;;1.60;;
58338;SDS011;68636;52.704;6.536;2023-04-03T03:08:59;6.60;;;1.83;;
58338;SDS011;68636;52.704;6.536;2023-04-03T03:11:25;8.35;;;1.58;;
58338;SDS011;68636;52.704;6.536;2023-04-03T03:13:51;10.65;;;1.70;;
58338;SDS011;68636;52.704;6.536;2023-04-03T03:16:16;9.05;;;1.73;;
58338;SDS011;68636;52.704;6.536;2023-04-03T03:18:42;16.10;;;1.88;;
58338;SDS011;68636;52.704;6.536;2023-04-03T03:21:08;7.63;;;1.80;;
58338;SDS011;68636;52.704;6.536;2023-04-03T03:23:35;9.55;;;1.70;;
58338;SDS011;68636;52.704;6.536;2023-04-03T03:26:05;7.78;;;1.90;;
58338;SDS011;68636;52.704;6.536;2023-04-03T03:28:33;7.13;;;1.52;;
58338;SDS011;68636;52.704;6.536;2023-04-03T03:30:59;9.37;;;1.87;;
58338;SDS011;68636;52.704;6.536;2023-04-03T03:33:25;8.35;;;2.30;;
58338;SDS011;68636;52.704;6.536;2023-04-03T03:35:52;8.65;;;2.05;;
58338;SDS011;68636;52.704;6.536;2023-04-03T03:40:46;12.35;;;2.72;;
58338;SDS011;68636;52.704;6.536;2023-04-03T03:43:13;8.70;;;2.90;;
58338;SDS011;68636;52.704;6.536;2023-04-03T03:45:39;7.18;;;2.22;;
58338;SDS011;68636;52.704;6.536;2023-04-03T03:48:05;7.90;;;2.30;;
58338;SDS011;68636;52.704;6.536;2023-04-03T03:50:31;6.32;;;1.60;;
58338;SDS011;68636;52.704;6.536;2023-04-03T03:52:56;6.68;;;1.88;;
58338;SDS011;68636;52.704;6.536;2023-04-03T03:55:22;8.02;;;1.80;;
58338;SDS011;68636;52.704;6.536;2023-04-03T03:57:48;7.85;;;1.75;;
58338;SDS011;68636;52.704;6.536;2023-04-03T04:00:14;7.72;;;1.70;;
58338;SDS011;68636;52.704;6.536;2023-04-03T04:02:40;6.90;;;1.53;;
58338;SDS011;68636;52.704;6.536;2023-04-03T04:05:06;7.53;;;1.88;;
58338;SDS011;68636;52.704;6.536;2023-04-03T04:07:32;7.00;;;2.00;;
58338;SDS011;68636;52.704;6.536;2023-04-03T04:09:58;10.18;;;1.75;;
58338;SDS011;68636;52.704;6.536;2023-04-03T04:12:24;5.30;;;1.70;;
58338;SDS011;68636;52.704;6.536;2023-04-03T04:14:49;11.20;;;2.15;;
58338;SDS011;68636;52.704;6.536;2023-04-03T04:17:15;13.13;;;2.38;;
58338;SDS011;68636;52.704;6.536;2023-04-03T04:19:41;8.57;;;1.80;;
58338;SDS011;68636;52.704;6.536;2023-04-03T04:22:07;10.35;;;1.70;;
58338;SDS011;68636;52.704;6.536;2023-04-03T04:24:32;7.93;;;1.63;;
58338;SDS011;68636;52.704;6.536;2023-04-03T04:26:58;5.82;;;1.98;;
58338;SDS011;68636;52.704;6.536;2023-04-03T04:29:24;6.75;;;1.63;;
58338;SDS011;68636;52.704;6.536;2023-04-03T04:31:50;11.23;;;1.90;;
58338;SDS011;68636;52.704;6.536;2023-04-03T04:34:15;8.13;;;1.88;;
58338;SDS011;68636;52.704;6.536;2023-04-03T04:36:41;10.95;;;1.88;;
58338;SDS011;68636;52.704;6.536;2023-04-03T04:39:07;13.43;;;2.28;;
58338;SDS011;68636;52.704;6.536;2023-04-03T04:41:33;6.82;;;1.80;;
58338;SDS011;68636;52.704;6.536;2023-04-03T04:43:59;6.97;;;1.58;;
58338;SDS011;68636;52.704;6.536;2023-04-03T04:46:25;9.38;;;1.95;;
58338;SDS011;68636;52.704;6.536;2023-04-03T04:48:51;6.07;;;1.25;;
58338;SDS011;68636;52.704;6.536;2023-04-03T04:51:17;6.30;;;1.90;;
58338;SDS011;68636;52.704;6.536;2023-04-03T04:53:43;9.43;;;1.90;;
58338;SDS011;68636;52.704;6.536;2023-04-03T04:56:09;11.95;;;3.17;;
58338;SDS011;68636;52.704;6.536;2023-04-03T04:58:35;10.20;;;2.15;;
58338;SDS011;68636;52.704;6.536;2023-04-03T05:01:05;9.40;;;2.30;;
58338;SDS011;68636;52.704;6.536;2023-04-03T05:03:32;10.75;;;3.15;;
58338;SDS011;68636;52.704;6.536;2023-04-03T05:05:58;8.67;;;2.30;;
58338;SDS011;68636;52.704;6.536;2023-04-03T05:08:24;8.77;;;2.33;;
58338;SDS011;68636;52.704;6.536;2023-04-03T05:10:50;9.40;;;2.40;;
58338;SDS011;68636;52.704;6.536;2023-04-03T05:13:16;8.10;;;1.75;;
58338;SDS011;68636;52.704;6.536;2023-04-03T05:15:42;9.43;;;2.38;;
58338;SDS011;68636;52.704;6.536;2023-04-03T05:18:07;8.05;;;1.88;;
58338;SDS011;68636;52.704;6.536;2023-04-03T05:20:33;9.90;;;2.30;;
58338;SDS011;68636;52.704;6.536;2023-04-03T05:22:59;9.25;;;2.10;;
58338;SDS011;68636;52.704;6.536;2023-04-03T05:25:25;10.50;;;2.30;;
58338;SDS011;68636;52.704;6.536;2023-04-03T05:27:51;7.00;;;2.17;;
58338;SDS011;68636;52.704;6.536;2023-04-03T05:30:17;9.65;;;2.10;;
58338;SDS011;68636;52.704;6.536;2023-04-03T05:32:43;11.27;;;2.10;;
58338;SDS011;68636;52.704;6.536;2023-04-03T05:35:09;9.38;;;2.40;;
58338;SDS011;68636;52.704;6.536;2023-04-03T05:37:35;12.30;;;2.53;;
58338;SDS011;68636;52.704;6.536;2023-04-03T05:40:02;10.77;;;2.17;;
58338;SDS011;68636;52.704;6.536;2023-04-03T05:42:29;8.85;;;2.35;;
58338;SDS011;68636;52.704;6.536;2023-04-03T05:44:55;10.40;;;2.72;;
58338;SDS011;68636;52.704;6.536;2023-04-03T05:47:21;9.48;;;2.22;;
58338;SDS011;68636;52.704;6.536;2023-04-03T05:49:47;12.73;;;2.88;;
58338;SDS011;68636;52.704;6.536;2023-04-03T05:52:26;8.05;;;2.28;;
58338;SDS011;68636;52.704;6.536;2023-04-03T05:54:54;11.63;;;2.72;;
58338;SDS011;68636;52.704;6.536;2023-04-03T05:57:20;12.25;;;2.33;;
58338;SDS011;68636;52.704;6.536;2023-04-03T05:59:46;20.65;;;2.70;;
58338;SDS011;68636;52.704;6.536;2023-04-03T06:02:13;12.83;;;3.13;;
58338;SDS011;68636;52.704;6.536;2023-04-03T06:04:41;9.60;;;2.30;;
58338;SDS011;68636;52.704;6.536;2023-04-03T06:07:09;10.15;;;2.65;;
58338;SDS011;68636;52.704;6.536;2023-04-03T06:09:38;8.30;;;2.10;;
58338;SDS011;68636;52.704;6.536;2023-04-03T06:12:04;11.23;;;2.35;;
58338;SDS011;68636;52.704;6.536;2023-04-03T06:14:30;12.65;;;2.10;;
58338;SDS011;68636;52.704;6.536;2023-04-03T06:16:56;15.75;;;2.92;;
58338;SDS011;68636;52.704;6.536;2023-04-03T06:19:22;9.13;;;2.92;;
58338;SDS011;68636;52.704;6.536;2023-04-03T06:21:48;7.63;;;2.05;;
58338;SDS011;68636;52.704;6.536;2023-04-03T06:24:15;7.50;;;2.20;;
58338;SDS011;68636;52.704;6.536;2023-04-03T06:26:41;7.55;;;2.00;;
58338;SDS011;68636;52.704;6.536;2023-04-03T06:29:07;11.70;;;1.88;;
58338;SDS011;68636;52.704;6.536;2023-04-03T06:31:34;8.23;;;1.65;;
58338;SDS011;68636;52.704;6.536;2023-04-03T06:34:01;8.27;;;1.70;;
58338;SDS011;68636;52.704;6.536;2023-04-03T06:36:28;6.43;;;1.45;;
58338;SDS011;68636;52.704;6.536;2023-04-03T06:38:54;6.40;;;1.20;;
58338;SDS011;68636;52.704;6.536;2023-04-03T06:41:20;6.78;;;1.83;;
58338;SDS011;68636;52.704;6.536;2023-04-03T06:43:47;10.88;;;1.90;;
58338;SDS011;68636;52.704;6.536;2023-04-03T06:46:17;8.85;;;1.55;;
58338;SDS011;68636;52.704;6.536;2023-04-03T06:48:44;7.68;;;1.52;;
58338;SDS011;68636;52.704;6.536;2023-04-03T06:51:20;8.90;;;1.13;;
58338;SDS011;68636;52.704;6.536;2023-04-03T06:56:13;8.55;;;1.35;;
58338;SDS011;68636;52.704;6.536;2023-04-03T06:58:40;10.18;;;1.60;;
58338;SDS011;68636;52.704;6.536;2023-04-03T07:01:06;7.82;;;1.60;;
58338;SDS011;68636;52.704;6.536;2023-04-03T07:03:34;10.77;;;1.73;;
58338;SDS011;68636;52.704;6.536;2023-04-03T07:06:00;9.82;;;1.73;;
58338;SDS011;68636;52.704;6.536;2023-04-03T07:08:26;4.25;;;1.00;;
58338;SDS011;68636;52.704;6.536;2023-04-03T07:10:52;6.32;;;1.35;;
58338;SDS011;68636;52.704;6.536;2023-04-03T07:13:17;8.30;;;1.33;;
58338;SDS011;68636;52.704;6.536;2023-04-03T07:15:43;9.05;;;1.27;;
58338;SDS011;68636;52.704;6.536;2023-04-03T07:18:09;8.20;;;1.40;;
58338;SDS011;68636;52.704;6.536;2023-04-03T07:20:35;7.32;;;1.63;;
58338;SDS011;68636;52.704;6.536;2023-04-03T07:23:01;7.95;;;1.60;;
58338;SDS011;68636;52.704;6.536;2023-04-03T07:25:27;8.25;;;1.77;;
58338;SDS011;68636;52.704;6.536;2023-04-03T07:27:53;8.60;;;1.83;;
58338;SDS011;68636;52.704;6.536;2023-04-03T07:30:20;7.78;;;1.27;;
58338;SDS011;68636;52.704;6.536;2023-04-03T07:32:46;7.50;;;1.77;;
58338;SDS011;68636;52.704;6.536;2023-04-03T07:35:12;6.90;;;1.88;;
58338;SDS011;68636;52.704;6.536;2023-04-03T07:37:38;8.57;;;1.30;;
58338;SDS011;68636;52.704;6.536;2023-04-03T07:40:04;13.32;;;1.90;;
58338;SDS011;68636;52.704;6.536;2023-04-03T07:42:30;4.90;;;0.82;;
58338;SDS011;68636;52.704;6.536;2023-04-03T07:44:56;7.68;;;1.60;;
58338;SDS011;68636;52.704;6.536;2023-04-03T07:47:22;9.90;;;1.92;;
58338;SDS011;68636;52.704;6.536;2023-04-03T07:49:48;13.90;;;5.13;;
58338;SDS011;68636;52.704;6.536;2023-04-03T07:52:13;6.28;;;0.82;;
58338;SDS011;68636;52.704;6.536;2023-04-03T07:54:40;6.93;;;0.82;;
58338;SDS011;68636;52.704;6.536;2023-04-03T07:57:06;7.70;;;1.25;;
58338;SDS011;68636;52.704;6.536;2023-04-03T07:59:32;6.00;;;0.98;;
58338;SDS011;68636;52.704;6.536;2023-04-03T08:01:58;6.57;;;1.10;;
58338;SDS011;68636;52.704;6.536;2023-04-03T08:04:25;7.32;;;1.38;;
58338;SDS011;68636;52.704;6.536;2023-04-03T08:06:51;5.18;;;1.00;;
58338;SDS011;68636;52.704;6.536;2023-04-03T08:09:18;11.27;;;0.95;;
58338;SDS011;68636;52.704;6.536;2023-04-03T08:11:44;4.97;;;1.10;;
58338;SDS011;68636;52.704;6.536;2023-04-03T08:14:10;3.65;;;1.02;;
58338;SDS011;68636;52.704;6.536;2023-04-03T08:16:41;9.05;;;1.02;;
58338;SDS011;68636;52.704;6.536;2023-04-03T08:19:08;5.00;;;0.98;;
58338;SDS011;68636;52.704;6.536;2023-04-03T08:21:35;4.25;;;0.70;;
58338;SDS011;68636;52.704;6.536;2023-04-03T08:24:01;6.88;;;0.63;;
58338;SDS011;68636;52.704;6.536;2023-04-03T08:26:28;5.55;;;0.90;;
58338;SDS011;68636;52.704;6.536;2023-04-03T08:28:54;5.75;;;0.80;;
58338;SDS011;68636;52.704;6.536;2023-04-03T08:31:19;6.38;;;0.88;;
58338;SDS011;68636;52.704;6.536;2023-04-03T08:33:46;6.20;;;0.90;;
58338;SDS011;68636;52.704;6.536;2023-04-03T08:36:22;6.07;;;0.70;;
58338;SDS011;68636;52.704;6.536;2023-04-03T08:38:50;4.63;;;0.60;;
58338;SDS011;68636;52.704;6.536;2023-04-03T08:46:17;7.55;;;0.90;;
58338;SDS011;68636;52.704;6.536;2023-04-03T08:48:47;3.10;;;0.45;;
58338;SDS011;68636;52.704;6.536;2023-04-03T08:51:15;3.78;;;0.70;;
58338;SDS011;68636;52.704;6.536;2023-04-03T08:53:55;4.38;;;0.60;;
58338;SDS011;68636;52.704;6.536;2023-04-03T08:56:28;3.90;;;0.63;;
58338;SDS011;68636;52.704;6.536;2023-04-03T08:59:06;4.15;;;0.60;;
58338;SDS011;68636;52.704;6.536;2023-04-03T09:01:38;5.53;;;0.60;;
58338;SDS011;68636;52.704;6.536;2023-04-03T09:04:12;4.20;;;0.70;;
58338;SDS011;68636;52.704;6.536;2023-04-03T09:06:40;5.88;;;0.60;;
58338;SDS011;68636;52.704;6.536;2023-04-03T09:09:15;4.28;;;0.57;;
58338;SDS011;68636;52.704;6.536;2023-04-03T09:25:48;5.80;;;0.40;;
58338;SDS011;68636;52.704;6.536;2023-04-03T09:28:16;3.28;;;0.35;;
58338;SDS011;68636;52.704;6.536;2023-04-03T09:30:42;2.95;;;0.50;;
58338;SDS011;68636;52.704;6.536;2023-04-03T09:33:08;1.35;;;0.35;;
58338;SDS011;68636;52.704;6.536;2023-04-03T09:35:35;6.20;;;0.85;;
58338;SDS011;68636;52.704;6.536;2023-04-03T09:45:56;2.27;;;0.50;;
58338;SDS011;68636;52.704;6.536;2023-04-03T09:48:49;5.85;;;0.45;;
58338;SDS011;68636;52.704;6.536;2023-04-03T09:51:16;4.70;;;0.50;;
58338;SDS011;68636;52.704;6.536;2023-04-03T09:53:42;4.43;;;0.50;;
58338;SDS011;68636;52.704;6.536;2023-04-03T09:58:42;5.68;;;0.68;;
58338;SDS011;68636;52.704;6.536;2023-04-03T10:01:29;3.08;;;0.50;;
58338;SDS011;68636;52.704;6.536;2023-04-03T10:04:06;2.17;;;0.40;;
58338;SDS011;68636;52.704;6.536;2023-04-03T10:06:34;2.85;;;0.20;;
58338;SDS011;68636;52.704;6.536;2023-04-03T10:09:03;1.98;;;0.30;;
58338;SDS011;68636;52.704;6.536;2023-04-03T10:11:30;2.55;;;0.82;;
58338;SDS011;68636;52.704;6.536;2023-04-03T10:13:58;2.47;;;0.20;;
58338;SDS011;68636;52.704;6.536;2023-04-03T10:16:48;2.88;;;0.60;;
58338;SDS011;68636;52.704;6.536;2023-04-03T10:21:50;7.50;;;2.00;;
58338;SDS011;68636;52.704;6.536;2023-04-03T10:38:20;1.08;;;0.28;;
58338;SDS011;68636;52.704;6.536;2023-04-03T10:43:42;3.47;;;0.50;;
58338;SDS011;68636;52.704;6.536;2023-04-03T10:46:22;2.78;;;0.32;;
58338;SDS011;68636;52.704;6.536;2023-04-03T10:51:23;2.38;;;0.60;;
58338;SDS011;68636;52.704;6.536;2023-04-03T10:57:10;3.92;;;0.30;;
58338;SDS011;68636;52.704;6.536;2023-04-03T11:02:07;1.50;;;0.20;;
58338;SDS011;68636;52.704;6.536;2023-04-03T11:04:37;4.50;;;0.50;;
58338;SDS011;68636;52.704;6.536;2023-04-03T11:09:45;4.18;;;0.40;;
58338;SDS011;68636;52.704;6.536;2023-04-03T11:12:30;2.95;;;0.30;;
58338;SDS011;68636;52.704;6.536;2023-04-03T11:15:06;2.22;;;0.50;;
58338;SDS011;68636;52.704;6.536;2023-04-03T11:17:43;4.30;;;0.47;;
58338;SDS011;68636;52.704;6.536;2023-04-03T11:22:53;0.88;;;0.15;;
58338;SDS011;68636;52.704;6.536;2023-04-03T11:25:26;2.78;;;0.38;;
58338;SDS011;68636;52.704;6.536;2023-04-03T11:28:01;2.10;;;0.40;;
58338;SDS011;68636;52.704;6.536;2023-04-03T11:36:09;3.97;;;0.30;;
58338;SDS011;68636;52.704;6.536;2023-04-03T11:38:57;2.38;;;0.30;;
58338;SDS011;68636;52.704;6.536;2023-04-03T11:41:32;2.70;;;0.32;;
58338;SDS011;68636;52.704;6.536;2023-04-03T11:44:06;1.80;;;0.22;;
58338;SDS011;68636;52.704;6.536;2023-04-03T11:46:52;4.78;;;0.40;;
58338;SDS011;68636;52.704;6.536;2023-04-03T12:06:41;3.67;;;0.75;;
58338;SDS011;68636;52.704;6.536;2023-04-03T12:21:36;3.05;;;0.47;;
58338;SDS011;68636;52.704;6.536;2023-04-03T12:35:30;3.75;;;0.50;;
58338;SDS011;68636;52.704;6.536;2023-04-03T12:48:47;1.90;;;0.32;;
58338;SDS011;68636;52.704;6.536;2023-04-03T12:51:35;5.00;;;0.68;;
58338;SDS011;68636;52.704;6.536;2023-04-03T12:54:26;3.20;;;0.60;;
58338;SDS011;68636;52.704;6.536;2023-04-03T12:57:09;3.17;;;0.50;;
58338;SDS011;68636;52.704;6.536;2023-04-03T12:59:46;4.67;;;0.40;;
58338;SDS011;68636;52.704;6.536;2023-04-03T13:02:31;1.52;;;0.50;;
58338;SDS011;68636;52.704;6.536;2023-04-03T13:07:31;3.55;;;0.60;;
58338;SDS011;68636;52.704;6.536;2023-04-03T13:12:44;3.38;;;0.52;;
58338;SDS011;68636;52.704;6.536;2023-04-03T13:15:20;2.00;;;0.35;;
58338;SDS011;68636;52.704;6.536;2023-04-03T13:17:46;3.20;;;0.32;;
58338;SDS011;68636;52.704;6.536;2023-04-03T13:20:19;2.80;;;0.70;;
58338;SDS011;68636;52.704;6.536;2023-04-03T13:22:50;2.58;;;0.68;;
58338;SDS011;68636;52.704;6.536;2023-04-03T13:25:19;3.58;;;0.73;;
58338;SDS011;68636;52.704;6.536;2023-04-03T13:27:47;2.90;;;0.57;;
58338;SDS011;68636;52.704;6.536;2023-04-03T13:30:19;3.03;;;0.47;;
58338;SDS011;68636;52.704;6.536;2023-04-03T13:32:51;4.13;;;0.40;;
58338;SDS011;68636;52.704;6.536;2023-04-03T13:35:25;2.38;;;0.50;;
58338;SDS011;68636;52.704;6.536;2023-04-03T13:37:56;3.28;;;0.40;;
58338;SDS011;68636;52.704;6.536;2023-04-03T13:40:24;5.00;;;0.55;;
58338;SDS011;68636;52.704;6.536;2023-04-03T13:43:01;2.90;;;0.55;;
58338;SDS011;68636;52.704;6.536;2023-04-03T13:45:32;3.60;;;0.40;;
58338;SDS011;68636;52.704;6.536;2023-04-03T13:48:16;4.85;;;0.82;;
58338;SDS011;68636;52.704;6.536;2023-04-03T13:53:23;3.92;;;0.95;;
58338;SDS011;68636;52.704;6.536;2023-04-03T13:55:57;3.70;;;0.50;;
58338;SDS011;68636;52.704;6.536;2023-04-03T13:58:31;3.90;;;0.43;;
58338;SDS011;68636;52.704;6.536;2023-04-03T14:01:16;2.58;;;0.50;;
58338;SDS011;68636;52.704;6.536;2023-04-03T14:03:55;1.63;;;0.40;;
58338;SDS011;68636;52.704;6.536;2023-04-03T14:06:23;2.85;;;0.70;;
58338;SDS011;68636;52.704;6.536;2023-04-03T14:08:49;3.38;;;0.88;;
58338;SDS011;68636;52.704;6.536;2023-04-03T14:11:16;3.05;;;0.60;;
58338;SDS011;68636;52.704;6.536;2023-04-03T14:13:46;2.90;;;0.55;;
58338;SDS011;68636;52.704;6.536;2023-04-03T14:16:13;3.13;;;0.60;;
58338;SDS011;68636;52.704;6.536;2023-04-03T14:18:47;4.78;;;0.63;;
58338;SDS011;68636;52.704;6.536;2023-04-03T14:21:17;3.42;;;0.40;;
58338;SDS011;68636;52.704;6.536;2023-04-03T14:23:43;2.45;;;0.40;;
58338;SDS011;68636;52.704;6.536;2023-04-03T14:26:28;4.18;;;0.90;;
58338;SDS011;68636;52.704;6.536;2023-04-03T14:28:55;3.50;;;0.90;;
58338;SDS011;68636;52.704;6.536;2023-04-03T14:31:21;2.67;;;0.50;;
58338;SDS011;68636;52.704;6.536;2023-04-03T14:33:47;3.92;;;0.85;;
58338;SDS011;68636;52.704;6.536;2023-04-03T14:36:17;3.08;;;0.50;;
58338;SDS011;68636;52.704;6.536;2023-04-03T14:38:48;4.60;;;0.70;;
58338;SDS011;68636;52.704;6.536;2023-04-03T14:43:42;1.30;;;0.32;;
58338;SDS011;68636;52.704;6.536;2023-04-03T14:46:15;6.50;;;0.90;;
58338;SDS011;68636;52.704;6.536;2023-04-03T14:48:56;3.30;;;0.70;;
58338;SDS011;68636;52.704;6.536;2023-04-03T14:51:22;3.78;;;0.50;;
58338;SDS011;68636;52.704;6.536;2023-04-03T14:53:48;3.70;;;0.60;;
58338;SDS011;68636;52.704;6.536;2023-04-03T14:56:23;4.10;;;0.60;;
58338;SDS011;68636;52.704;6.536;2023-04-03T14:58:56;3.17;;;0.65;;
58338;SDS011;68636;52.704;6.536;2023-04-03T15:01:24;3.17;;;1.00;;
58338;SDS011;68636;52.704;6.536;2023-04-03T15:03:50;4.15;;;0.70;;
58338;SDS011;68636;52.704;6.536;2023-04-03T15:06:16;2.50;;;0.40;;
58338;SDS011;68636;52.704;6.536;2023-04-03T15:08:42;4.30;;;0.63;;
58338;SDS011;68636;52.704;6.536;2023-04-03T15:11:11;3.58;;;0.70;;
58338;SDS011;68636;52.704;6.536;2023-04-03T15:13:37;4.93;;;0.80;;
58338;SDS011;68636;52.704;6.536;2023-04-03T15:16:04;3.58;;;0.75;;
58338;SDS011;68636;52.704;6.536;2023-04-03T15:21:00;7.03;;;0.60;;
58338;SDS011;68636;52.704;6.536;2023-04-03T15:23:26;4.38;;;0.70;;
58338;SDS011;68636;52.704;6.536;2023-04-03T15:25:53;5.47;;;0.70;;
58338;SDS011;68636;52.704;6.536;2023-04-03T15:31:02;4.85;;;0.75;;
58338;SDS011;68636;52.704;6.536;2023-04-03T15:33:29;3.38;;;0.70;;
58338;SDS011;68636;52.704;6.536;2023-04-03T15:35:56;6.20;;;0.93;;
58338;SDS011;68636;52.704;6.536;2023-04-03T15:38:21;2.92;;;0.77;;
58338;SDS011;68636;52.704;6.536;2023-04-03T15:40:47;2.38;;;0.70;;
58338;SDS011;68636;52.704;6.536;2023-04-03T15:43:13;3.55;;;0.60;;
58338;SDS011;68636;52.704;6.536;2023-04-03T15:45:40;7.45;;;0.60;;
58338;SDS011;68636;52.704;6.536;2023-04-03T15:48:06;3.43;;;0.60;;
58338;SDS011;68636;52.704;6.536;2023-04-03T15:50:33;3.93;;;0.60;;
58338;SDS011;68636;52.704;6.536;2023-04-03T15:52:59;4.67;;;0.80;;
58338;SDS011;68636;52.704;6.536;2023-04-03T15:55:28;3.85;;;0.50;;
58338;SDS011;68636;52.704;6.536;2023-04-03T15:57:55;2.83;;;0.50;;
58338;SDS011;68636;52.704;6.536;2023-04-03T16:00:22;4.05;;;0.60;;
58338;SDS011;68636;52.704;6.536;2023-04-03T16:05:16;2.35;;;0.80;;
58338;SDS011;68636;52.704;6.536;2023-04-03T16:07:43;4.32;;;0.70;;
58338;SDS011;68636;52.704;6.536;2023-04-03T16:10:10;4.03;;;1.08;;
58338;SDS011;68636;52.704;6.536;2023-04-03T16:12:36;3.20;;;0.60;;
58338;SDS011;68636;52.704;6.536;2023-04-03T16:15:03;4.38;;;0.80;;
58338;SDS011;68636;52.704;6.536;2023-04-03T16:17:29;3.38;;;0.60;;
58338;SDS011;68636;52.704;6.536;2023-04-03T16:19:57;3.10;;;0.63;;
58338;SDS011;68636;52.704;6.536;2023-04-03T16:24:51;3.92;;;0.60;;
58338;SDS011;68636;52.704;6.536;2023-04-03T16:27:17;5.45;;;0.70;;
58338;SDS011;68636;52.704;6.536;2023-04-03T16:29:43;4.93;;;0.65;;
58338;SDS011;68636;52.704;6.536;2023-04-03T16:32:08;5.25;;;0.70;;
58338;SDS011;68636;52.704;6.536;2023-04-03T16:34:34;3.33;;;0.60;;
58338;SDS011;68636;52.704;6.536;2023-04-03T16:37:00;5.63;;;0.80;;
58338;SDS011;68636;52.704;6.536;2023-04-03T16:39:26;4.75;;;1.10;;
58338;SDS011;68636;52.704;6.536;2023-04-03T16:41:52;4.50;;;0.95;;
58338;SDS011;68636;52.704;6.536;2023-04-03T16:44:18;4.30;;;0.93;;
58338;SDS011;68636;52.704;6.536;2023-04-03T16:46:43;4.70;;;0.70;;
58338;SDS011;68636;52.704;6.536;2023-04-03T16:49:09;4.70;;;1.13;;
58338;SDS011;68636;52.704;6.536;2023-04-03T16:51:35;3.28;;;0.82;;
58338;SDS011;68636;52.704;6.536;2023-04-03T16:54:01;3.85;;;0.80;;
58338;SDS011;68636;52.704;6.536;2023-04-03T16:56:26;4.20;;;1.15;;
58338;SDS011;68636;52.704;6.536;2023-04-03T16:58:52;3.80;;;0.60;;
58338;SDS011;68636;52.704;6.536;2023-04-03T17:01:19;4.35;;;0.65;;
58338;SDS011;68636;52.704;6.536;2023-04-03T17:03:46;7.13;;;1.30;;
58338;SDS011;68636;52.704;6.536;2023-04-03T17:06:14;5.30;;;0.82;;
58338;SDS011;68636;52.704;6.536;2023-04-03T17:08:45;5.20;;;0.98;;
58338;SDS011;68636;52.704;6.536;2023-04-03T17:11:12;4.18;;;0.70;;
58338;SDS011;68636;52.704;6.536;2023-04-03T17:13:38;3.35;;;0.70;;
58338;SDS011;68636;52.704;6.536;2023-04-03T17:16:06;3.97;;;0.65;;
58338;SDS011;68636;52.704;6.536;2023-04-03T17:18:34;5.20;;;0.70;;
58338;SDS011;68636;52.704;6.536;2023-04-03T17:21:01;4.18;;;0.70;;
58338;SDS011;68636;52.704;6.536;2023-04-03T17:23:28;5.07;;;0.80;;
58338;SDS011;68636;52.704;6.536;2023-04-03T17:25:54;3.93;;;0.67;;
58338;SDS011;68636;52.704;6.536;2023-04-03T17:28:21;4.03;;;0.88;;
58338;SDS011;68636;52.704;6.536;2023-04-03T17:30:53;4.22;;;1.00;;